AUA1109 LOWW-LIPZ
Flight info
| Callsign | AUA1109 |
|---|---|
| Flight time | N/A |
| Altitude | 34000 |
| Route | RUPET2D RUPET DCT GRZ DCT RADLY DCT OGODI DCT RIFEN/N0440F330 DCT BADOP DCT ROSKA/N0367F190 P125 TULIK Z71 BASOG BASOG2E |
| Aircraft | A320/M-V/N |
Departure
| Time | N/A |
|---|---|
| Airport | Vienna International Airport (LOWW) |
Arrival
| Time | 2026-04-30 20:13 |
|---|---|
| Airport | Venice Marco Polo Airport (LIPZ) |
| Time | Latitude | Longitude | Altitude | Speed | Heading |
|---|---|---|---|---|---|
| 2026-04-30 19:56 | 45.78782 | 13.49747 | 29080 ft | 469 kts | 230° |
| 2026-04-30 19:56 | 45.76608 | 13.46301 | 28509 ft | 463 kts | 231° |
| 2026-04-30 19:56 | 45.74464 | 13.42900 | 27950 ft | 457 kts | 231° |
| 2026-04-30 19:57 | 45.72328 | 13.39563 | 27392 ft | 452 kts | 230° |
| 2026-04-30 19:57 | 45.70190 | 13.36287 | 26819 ft | 448 kts | 229° |
| 2026-04-30 19:57 | 45.68123 | 13.33166 | 26299 ft | 444 kts | 229° |
| 2026-04-30 19:57 | 45.66172 | 13.30249 | 25823 ft | 440 kts | 229° |
| 2026-04-30 19:58 | 45.64088 | 13.27146 | 25314 ft | 436 kts | 229° |
| 2026-04-30 19:58 | 45.62674 | 13.25037 | 24974 ft | 434 kts | 229° |
| 2026-04-30 19:58 | 45.60711 | 13.22106 | 24518 ft | 430 kts | 229° |
| 2026-04-30 19:58 | 45.58383 | 13.18620 | 23983 ft | 425 kts | 229° |
| 2026-04-30 19:59 | 45.56351 | 13.15573 | 23469 ft | 421 kts | 229° |
| 2026-04-30 19:59 | 45.54345 | 13.12564 | 23008 ft | 416 kts | 229° |
| 2026-04-30 19:59 | 45.50393 | 13.06648 | 22102 ft | 408 kts | 229° |
| 2026-04-30 20:00 | 45.49072 | 13.04677 | 21789 ft | 405 kts | 229° |
| 2026-04-30 20:00 | 45.47131 | 13.01792 | 21343 ft | 402 kts | 227° |
| 2026-04-30 20:00 | 45.44992 | 12.99226 | 20876 ft | 402 kts | 217° |
| 2026-04-30 20:00 | 45.42679 | 12.96998 | 20401 ft | 400 kts | 216° |
| 2026-04-30 20:01 | 45.38088 | 12.92596 | 19434 ft | 396 kts | 216° |
| 2026-04-30 20:01 | 45.35809 | 12.90404 | 18954 ft | 395 kts | 216° |
| 2026-04-30 20:01 | 45.33616 | 12.88044 | 18080 ft | 397 kts | 227° |
| 2026-04-30 20:02 | 45.31105 | 12.81268 | 16420 ft | 383 kts | 264° |
| 2026-04-30 20:02 | 45.30862 | 12.77544 | 15769 ft | 376 kts | 270° |
| 2026-04-30 20:03 | 45.30551 | 12.70191 | 14486 ft | 370 kts | 270° |
| 2026-04-30 20:03 | 45.30407 | 12.66611 | 13850 ft | 367 kts | 270° |
| 2026-04-30 20:03 | 45.30261 | 12.63012 | 13235 ft | 364 kts | 270° |
| 2026-04-30 20:03 | 45.30118 | 12.59446 | 12617 ft | 360 kts | 270° |
| 2026-04-30 20:04 | 45.29976 | 12.55936 | 11759 ft | 353 kts | 270° |
| 2026-04-30 20:04 | 45.29836 | 12.52484 | 10908 ft | 347 kts | 270° |
| 2026-04-30 20:04 | 45.29695 | 12.49159 | 10648 ft | 324 kts | 270° |
| 2026-04-30 20:05 | 45.29427 | 12.43006 | 10250 ft | 307 kts | 270° |
| 2026-04-30 20:05 | 45.29299 | 12.39981 | 9498 ft | 306 kts | 269° |
| 2026-04-30 20:05 | 45.29047 | 12.34028 | 8234 ft | 299 kts | 269° |
| 2026-04-30 20:06 | 45.28921 | 12.31081 | 7615 ft | 299 kts | 268° |
| 2026-04-30 20:06 | 45.28794 | 12.28143 | 7019 ft | 296 kts | 268° |
| 2026-04-30 20:06 | 45.28665 | 12.25255 | 6400 ft | 291 kts | 268° |
| 2026-04-30 20:06 | 45.28537 | 12.22392 | 5615 ft | 291 kts | 267° |
| 2026-04-30 20:07 | 45.28517 | 12.19498 | 4921 ft | 286 kts | 282° |
| 2026-04-30 20:07 | 45.29239 | 12.16994 | 4468 ft | 267 kts | 310° |
| 2026-04-30 20:07 | 45.32009 | 12.14575 | 4204 ft | 218 kts | 356° |
| 2026-04-30 20:08 | 45.33447 | 12.14581 | 4050 ft | 202 kts | 14° |
| 2026-04-30 20:08 | 45.34737 | 12.15209 | 3835 ft | 189 kts | 32° |
| 2026-04-30 20:08 | 45.35749 | 12.16285 | 3609 ft | 176 kts | 46° |
| 2026-04-30 20:08 | 45.36630 | 12.17406 | 3417 ft | 163 kts | 46° |
| 2026-04-30 20:09 | 45.37447 | 12.18445 | 3175 ft | 152 kts | 46° |
| 2026-04-30 20:09 | 45.38211 | 12.19421 | 2989 ft | 143 kts | 46° |
| 2026-04-30 20:09 | 45.39652 | 12.21262 | 2615 ft | 137 kts | 47° |
| 2026-04-30 20:10 | 45.41064 | 12.23070 | 2246 ft | 136 kts | 47° |
| 2026-04-30 20:10 | 45.41769 | 12.23972 | 2068 ft | 136 kts | 46° |
| 2026-04-30 20:10 | 45.42472 | 12.24872 | 1877 ft | 136 kts | 46° |
| 2026-04-30 20:11 | 45.43879 | 12.26672 | 1506 ft | 136 kts | 46° |
| 2026-04-30 20:11 | 45.44570 | 12.27559 | 1325 ft | 136 kts | 46° |
| 2026-04-30 20:11 | 45.45280 | 12.28468 | 1141 ft | 135 kts | 45° |
| 2026-04-30 20:12 | 45.46682 | 12.30266 | 776 ft | 136 kts | 44° |
| 2026-04-30 20:12 | 45.47390 | 12.31173 | 590 ft | 138 kts | 43° |
| 2026-04-30 20:12 | 45.48103 | 12.32082 | 377 ft | 138 kts | 43° |
| 2026-04-30 20:13 | 45.48816 | 12.32998 | 217 ft | 138 kts | 43° |
| 2026-04-30 20:13 | 45.49531 | 12.33917 | 37 ft | 138 kts | 42° |
| 2026-04-30 20:13 | 45.50158 | 12.34734 | 15 ft | 99 kts | 41° |
| 2026-04-30 20:13 | 45.50517 | 12.35198 | 13 ft | 38 kts | 39° |
| 2026-04-30 20:14 | 45.50682 | 12.35352 | 15 ft | 14 kts | 17° |
| 2026-04-30 20:14 | 45.50762 | 12.35413 | 16 ft | 12 kts | 20° |
| 2026-04-30 20:14 | 45.50836 | 12.35436 | 16 ft | 11 kts | 10° |
| 2026-04-30 20:14 | 45.50902 | 12.35454 | 16 ft | 9 kts | 11° |
| 2026-04-30 20:15 | 45.50952 | 12.35447 | 17 ft | 6 kts | 334° |
| 2026-04-30 20:15 | 45.50973 | 12.35411 | 18 ft | 4 kts | 295° |
| 2026-04-30 20:15 | 45.50978 | 12.35369 | 18 ft | 9 kts | 273° |
| 2026-04-30 20:15 | 45.50961 | 12.35241 | 18 ft | 14 kts | 251° |
| 2026-04-30 20:16 | 45.50902 | 12.35138 | 16 ft | 13 kts | 220° |
| 2026-04-30 20:16 | 45.50839 | 12.35057 | 16 ft | 11 kts | 223° |
| 2026-04-30 20:16 | 45.50784 | 12.34984 | 16 ft | 10 kts | 222° |
| 2026-04-30 20:16 | 45.50757 | 12.34950 | 16 ft | 4 kts | 222° |
| 2026-04-30 20:17 | 45.50717 | 12.34897 | 17 ft | 9 kts | 222° |
| 2026-04-30 20:17 | 45.50673 | 12.34840 | 16 ft | 8 kts | 222° |
| 2026-04-30 20:17 | 45.50635 | 12.34791 | 15 ft | 7 kts | 224° |
| 2026-04-30 20:17 | 45.50606 | 12.34715 | 16 ft | 11 kts | 257° |
| 2026-04-30 20:18 | 45.50601 | 12.34610 | 16 ft | 10 kts | 266° |
| 2026-04-30 20:18 | 45.50597 | 12.34492 | 16 ft | 12 kts | 269° |
| 2026-04-30 20:18 | 45.50572 | 12.34396 | 16 ft | 10 kts | 224° |
| 2026-04-30 20:18 | 45.50521 | 12.34345 | 16 ft | 8 kts | 195° |
| 2026-04-30 20:19 | 45.50470 | 12.34344 | 16 ft | 6 kts | 180° |
| 2026-04-30 20:19 | 45.50435 | 12.34327 | 16 ft | 4 kts | 223° |
| 2026-04-30 20:19 | 45.50430 | 12.34289 | 16 ft | 3 kts | 266° |
| 2026-04-30 20:19 | 45.50429 | 12.34258 | 16 ft | 3 kts | 266° |
| 2026-04-30 20:20 | 45.50428 | 12.34234 | 16 ft | 2 kts | 267° |
| 2026-04-30 20:20 | 45.50428 | 12.34226 | 16 ft | 0 kts | 267° |